KOWD/OWD METAR and TAF weather

Enter ICAO airport designator
Station Type Date Time Source
KOWD METAR 2020/01/22 20:53 UTC NOAA

KOWD 222053Z 22004KT 10SM CLR 04/M09 A3039 RMK AO2 SLP290 T00391094 56001


Station Type Date Time Source
KOWD Decoded METAR 2020/01/22 20:53 UTC NOAA

NORWOOD MEMORIAL AIRPORT, MA, United States (KOWD) 42-11N 71-10W 19M
Jan 22, 2020 - 03:53 PM EST / 2020.01.22 2053 UTC
Wind: from the SW (220 degrees) at 5 MPH (4 KT):0
Visibility: 10 mile(s):0
Sky conditions: clear
Temperature: 39.0 F (3.9 C)
Dew Point: 15.1 F (-9.4 C)
Relative Humidity: 37%
Pressure (altimeter): 30.39 in. Hg (1029 hPa)
Pressure tendency: 0.00 inches (0.1 hPa) lower than three hours ago
ob: KOWD 222053Z 22004KT 10SM CLR 04/M09 A3039 RMK AO2 SLP290 T00391094 56001
cycle: 21

Station Type Date Time Source
KOWD TAF UTC NOAA

Error!

Example: see airport list